To NAV CANADA Home Page Login to a new session Search on AWWS site Disclaimer Vers la page française équivalente Tips FAQ What's new on the site To the Forecasts and Observations / NOTAM section To "File a Flight Plan" website Publications and other links Update of the User's profile FIC Telephone Numbers My Weather Data Folder Route Weather Data Regional Weather Data Local Weather Data To the Forecasts and Observations / NOTAM section
Request Generated 07/09/2020 at 11:03:51 UTC . Weather information available at that time is displayed.

METAR/TAF

BAKER LAKE/NU    

METAR CYBK 091100Z 03003KT 1/2SM -RA FG VV002 06/06 A2967 RMK FG8 SLP050=
METAR CYBK 091000Z 02004KT 1/2SM -RA FG VV002 06/06 A2967 RMK FG8 SLP049=
METAR CYBK 090900Z VRB02KT 1/2SM -RA FG BKN002 OVC012 07/07 A2967 RMK ST5SC3 SLP051=

TAF AMD CYBK 090907Z 0909/0918 VRB03KT 1/2SM -RA FG BKN002 OVC015
TEMPO 0909/0912 6SM -RA BR BKN020 OVC040
FM091200 21005KT P6SM -RA FEW020 OVC040 TEMPO 0912/0914 1SM -SHRA
BR BKN020 OVC040
FM091400 33015KT P6SM FEW020 BKN040 TEMPO 0914/0918 BKN020
RMK NXT FCST BY 091200Z=
Your time UTC time
Weather data provided by Environment Canada and NAV CANADA